TAF Text Data
IDs:
Format:
Raw Decoded Include METAR

Data at: 0745 UTC 07 Dec 2022

TAF KHUA 062000Z 0620/0802 19006KT 6000 BR SCT005 OVC010 510053 QNH3002INS
  BECMG 0701/0702 18006KT 8000 BR BKN005 510053 QNH3011INS
  TEMPO 0714/0718 8000 -SHRA OVC006
  BECMG 0717/0718 VRB06KT 8000 BR OVC007 QNH3025INS
  BECMG 0718/0719 VRB06KT 8000 -SHRA OVC006 QNH3023INS
  BECMG 0722/0723 VRB06KT 8000 BR OVC006 QNH3025INS TX22/0621Z TN18/0702Z LAST NO AMDS AFT 0700 NEXT 0712